Time;durP1;ratioP1;P1;durP2;ratioP2;P2;SDS_P1;SDS_P2;PMS_P1;PMS_P2;Temp;Humidity;BMP_temperature;BMP_pressure;BME280_temperature;BME280_humidity;BME280_pressure;Samples;Min_cycle;Max_cycle;Signal;HPM_P1;HPM_P2
2020/12/18 00:00:35;;;;;;;33.00;28.33;;;;;;;6.76;100.00;95159.16;4967073;28;20612;-94
2020/12/18 00:03:08;;;;;;;29.23;26.20;;;;;;;6.94;100.00;95171.31;4956646;28;20871;-91
2020/12/18 00:05:35;;;;;;;29.53;26.30;;;;;;;7.19;100.00;95211.00;4958434;28;20977;-92
2020/12/18 00:08:02;;;;;;;28.93;25.57;;;;;;;7.22;100.00;95213.31;4975459;28;20521;-92
2020/12/18 00:10:28;;;;;;;37.43;29.43;;;;;;;7.04;100.00;95189.25;4975302;28;20460;-91
2020/12/18 00:12:55;;;;;;;29.50;26.70;;;;;;;6.76;100.00;95170.19;4975395;28;20462;-91
2020/12/18 00:15:25;;;;;;;29.80;27.00;;;;;;;6.99;100.00;95203.28;4975517;28;20937;-92
2020/12/18 00:17:52;;;;;;;29.53;26.43;;;;;;;7.26;100.00;95224.09;4975888;28;20451;-92
2020/12/18 00:20:18;;;;;;;31.10;27.40;;;;;;;7.08;100.00;95209.38;4975488;28;20441;-92
2020/12/18 00:22:46;;;;;;;33.20;27.50;;;;;;;6.58;100.00;95158.94;4975480;28;20441;-93
2020/12/18 00:25:13;;;;;;;30.93;27.80;;;;;;;6.57;100.00;95188.84;4975534;28;20492;-92
2020/12/18 00:27:39;;;;;;;36.73;26.60;;;;;;;6.59;100.00;95168.22;4975359;28;20500;-92
2020/12/18 00:30:07;;;;;;;28.97;26.10;;;;;;;6.97;100.00;95201.78;4969435;28;20450;-92
2020/12/18 00:32:33;;;;;;;29.23;26.30;;;;;;;7.04;100.00;95210.56;4957162;29;20415;-92
2020/12/18 00:35:00;;;;;;;32.37;26.53;;;;;;;7.10;100.00;95220.28;4958167;29;20477;-91
2020/12/18 00:37:26;;;;;;;30.83;26.33;;;;;;;6.98;100.00;95201.66;4957983;29;20483;-92
2020/12/18 00:39:54;;;;;;;30.43;27.43;;;;;;;7.06;100.00;95195.88;4955912;29;20878;-91
2020/12/18 00:42:20;;;;;;;33.20;26.43;;;;;;;6.92;100.00;95193.69;4955593;29;20458;-91
2020/12/18 00:44:47;;;;;;;29.73;26.70;;;;;;;7.02;100.00;95220.13;4955823;28;20438;-91
2020/12/18 00:47:13;;;;;;;30.27;26.33;;;;;;;6.86;100.00;95228.28;4956234;29;20435;-92
2020/12/18 00:49:40;;;;;;;28.80;25.90;;;;;;;6.84;100.00;95199.44;4956473;29;20430;-93
2020/12/18 00:52:07;;;;;;;34.30;26.20;;;;;;;6.90;100.00;95221.19;4955817;29;20434;-92
2020/12/18 00:54:37;;;;;;;31.07;26.90;;;;;;;6.94;100.00;95215.69;4956998;29;20451;-92
2020/12/18 00:57:04;;;;;;;34.13;28.20;;;;;;;6.96;100.00;95236.03;4955551;29;20509;-91
2020/12/18 00:59:31;;;;;;;29.03;26.13;;;;;;;6.85;100.00;95219.00;4955662;29;20525;-96
2020/12/18 01:01:58;;;;;;;31.27;28.17;;;;;;;6.78;100.00;95210.22;4956654;28;20541;-92
2020/12/18 01:04:24;;;;;;;38.37;28.17;;;;;;;6.87;100.00;95224.81;4956142;29;20417;-91
2020/12/18 01:06:52;;;;;;;34.10;27.40;;;;;;;6.57;100.00;95183.72;4956496;29;20438;-91
2020/12/18 01:09:19;;;;;;;32.27;26.53;;;;;;;6.91;100.00;95220.22;4974039;28;20438;-92
2020/12/18 01:11:45;;;;;;;28.67;26.13;;;;;;;6.87;100.00;95219.69;4980467;28;20565;-91
2020/12/18 01:14:13;;;;;;;30.10;27.13;;;;;;;6.96;100.00;95230.91;4982439;28;20968;-92
2020/12/18 01:16:39;;;;;;;28.90;26.40;;;;;;;6.56;100.00;95197.47;4975686;28;20547;-93
2020/12/18 01:19:05;;;;;;;29.37;26.47;;;;;;;6.74;100.00;95223.25;4975757;28;20465;-91
2020/12/18 01:21:32;;;;;;;31.63;27.90;;;;;;;6.81;100.00;95225.31;4975530;28;20441;-92
2020/12/18 01:23:59;;;;;;;29.83;25.20;;;;;;;6.87;100.00;95232.50;4958247;28;20453;-91
2020/12/18 01:26:25;;;;;;;33.20;26.07;;;;;;;6.54;100.00;95196.78;4956605;29;20506;-92
2020/12/18 01:28:52;;;;;;;29.90;26.67;;;;;;;6.46;100.00;95174.38;4956618;29;20426;-91
2020/12/18 01:31:19;;;;;;;32.20;28.00;;;;;;;6.91;100.00;95221.03;4957268;29;20946;-90
2020/12/18 01:33:45;;;;;;;31.60;27.97;;;;;;;6.95;100.00;95230.09;4959945;29;20452;-91
2020/12/18 01:36:12;;;;;;;36.77;28.03;;;;;;;6.83;100.00;95200.41;4956561;29;20472;-91
2020/12/18 01:38:38;;;;;;;30.97;26.70;;;;;;;6.86;100.00;95229.13;4956259;29;20460;-91
2020/12/18 01:41:05;;;;;;;30.13;27.00;;;;;;;6.92;100.00;95235.47;4956904;29;20441;-92
2020/12/18 01:44:04;;;;;;;30.67;27.50;;;;;;;6.87;100.00;95235.88;4958356;29;20427;-91
2020/12/18 01:46:32;;;;;;;29.80;26.77;;;;;;;6.67;100.00;95204.25;4899453;29;20980;-92
2020/12/18 01:48:59;;;;;;;29.47;26.33;;;;;;;6.89;100.00;95237.47;4910288;29;20503;-92
2020/12/18 01:51:26;;;;;;;34.23;28.03;;;;;;;6.83;100.00;95231.13;4928124;29;20883;-94
2020/12/18 01:53:54;;;;;;;32.40;29.10;;;;;;;6.92;100.00;95260.28;4957422;29;20798;-92
2020/12/18 01:56:22;;;;;;;29.60;26.00;;;;;;;6.95;100.00;95242.88;4959511;28;20482;-91
2020/12/18 01:58:52;;;;;;;29.73;26.70;;;;;;;6.88;100.00;95246.91;4959795;29;20442;-91
2020/12/18 02:01:18;;;;;;;34.33;26.93;;;;;;;6.79;100.00;95251.03;4959017;29;20415;-91
2020/12/18 02:03:46;;;;;;;29.00;26.30;;;;;;;6.75;100.00;95242.00;4959326;28;20486;-90
2020/12/18 02:06:15;;;;;;;32.60;28.27;;;;;;;6.78;100.00;95238.38;4959094;29;20924;-91
2020/12/18 02:08:43;;;;;;;29.00;25.90;;;;;;;6.62;100.00;95209.75;4958606;29;20914;-91
2020/12/18 02:11:12;;;;;;;29.43;26.30;;;;;;;6.87;100.00;95242.72;4959394;29;20449;-92
2020/12/18 02:13:38;;;;;;;29.63;26.50;;;;;;;6.86;100.00;95243.66;4958900;29;20501;-91
2020/12/18 02:16:05;;;;;;;28.63;25.70;;;;;;;6.80;100.00;95234.75;4958557;29;20483;-92
2020/12/18 02:18:31;;;;;;;30.33;27.13;;;;;;;6.55;100.00;95213.75;4958658;29;20972;-92
2020/12/18 02:21:02;;;;;;;30.73;27.73;;;;;;;6.65;100.00;95208.69;4959420;29;20443;-91
2020/12/18 02:23:28;;;;;;;31.17;27.80;;;;;;;6.79;100.00;95234.88;4958510;29;20891;-92
2020/12/18 02:26:11;;;;;;;30.97;25.77;;;;;;;6.79;100.00;95235.69;4958437;29;20462;-92
2020/12/18 02:28:38;;;;;;;29.27;26.27;;;;;;;6.70;100.00;95216.78;4957480;29;20533;-93
2020/12/18 02:31:05;;;;;;;29.10;26.33;;;;;;;6.72;100.00;95230.25;4957990;29;20497;-82
2020/12/18 02:33:33;;;;;;;107.43;56.90;;;;;;;6.70;100.00;95236.47;4957606;29;20442;-90
2020/12/18 02:36:00;;;;;;;34.07;28.43;;;;;;;6.51;100.00;95210.66;4957834;29;20469;-90
2020/12/18 02:38:27;;;;;;;28.60;25.57;;;;;;;6.66;100.00;95241.00;4957677;29;20437;-90
2020/12/18 02:40:54;;;;;;;28.70;25.80;;;;;;;6.71;100.00;95230.41;4958016;29;20434;-90
2020/12/18 02:43:22;;;;;;;28.03;25.23;;;;;;;6.62;100.00;95214.88;4958105;29;20965;-91
2020/12/18 02:45:49;;;;;;;27.53;24.90;;;;;;;6.29;100.00;95202.16;4958616;29;20545;-91
2020/12/18 02:48:16;;;;;;;27.47;25.03;;;;;;;6.51;100.00;95213.22;4957866;29;20458;-92
2020/12/18 02:50:43;;;;;;;27.70;25.00;;;;;;;6.68;100.00;95230.63;4958141;29;20970;-91
2020/12/18 02:53:14;;;;;;;29.20;25.70;;;;;;;6.39;100.00;95198.84;4958325;29;20526;-90
2020/12/18 02:55:41;;;;;;;27.93;24.93;;;;;;;6.54;100.00;95219.81;4957874;29;20924;-91
2020/12/18 02:58:08;;;;;;;27.33;24.60;;;;;;;6.15;100.00;95174.34;4957480;29;20431;-90
2020/12/18 03:00:37;;;;;;;28.60;25.70;;;;;;;6.66;100.00;95225.66;4957509;29;20537;-90
2020/12/18 03:03:04;;;;;;;27.47;24.87;;;;;;;6.67;100.00;95237.53;4958117;28;20545;-90
2020/12/18 03:05:30;;;;;;;26.70;24.10;;;;;;;6.13;100.00;95166.00;4957710;29;20448;-90
2020/12/18 03:07:57;;;;;;;27.60;25.10;;;;;;;6.52;100.00;95239.59;4956406;28;20438;-90
2020/12/18 03:10:24;;;;;;;28.77;25.83;;;;;;;6.47;100.00;95213.59;4957659;29;20415;-90
2020/12/18 03:12:50;;;;;;;29.17;25.80;;;;;;;6.52;100.00;95221.66;4957116;29;20496;-91
2020/12/18 03:15:17;;;;;;;30.27;27.10;;;;;;;6.60;100.00;95218.50;4956740;29;20484;-90
2020/12/18 03:17:45;;;;;;;26.93;24.63;;;;;;;6.50;100.00;95200.53;4956914;29;20438;-89
2020/12/18 03:20:11;;;;;;;26.23;24.07;;;;;;;6.50;100.00;95223.53;4957139;29;20446;-89
2020/12/18 03:22:37;;;;;;;27.30;24.60;;;;;;;6.39;100.00;95207.34;4957485;29;20797;-90
2020/12/18 03:25:04;;;;;;;29.63;24.67;;;;;;;6.47;100.00;95234.88;4956658;29;20991;-90
2020/12/18 03:27:31;;;;;;;31.17;26.03;;;;;;;6.39;100.00;95234.66;4956916;29;20441;-89
2020/12/18 03:29:58;;;;;;;27.67;24.97;;;;;;;6.16;100.00;95214.34;4956895;29;20507;-89
2020/12/18 03:32:24;;;;;;;32.37;25.30;;;;;;;6.33;100.00;95227.50;4956952;29;20446;-89
2020/12/18 03:34:51;;;;;;;28.97;24.50;;;;;;;6.22;100.00;95229.19;4956206;29;20445;-89
2020/12/18 03:37:18;;;;;;;25.90;23.37;;;;;;;6.13;100.00;95241.00;4957104;29;20446;-90
2020/12/18 03:39:45;;;;;;;26.77;24.27;;;;;;;6.26;100.00;95239.97;4956545;29;20976;-89
2020/12/18 03:42:11;;;;;;;28.53;25.63;;;;;;;6.19;100.00;95232.00;4957597;29;20462;-91
2020/12/18 03:44:38;;;;;;;27.57;24.80;;;;;;;5.88;100.00;95185.84;4956725;29;20437;-89
2020/12/18 03:47:04;;;;;;;27.13;24.63;;;;;;;6.21;100.00;95232.69;4956634;29;20411;-89
2020/12/18 03:49:30;;;;;;;25.83;23.63;;;;;;;6.20;100.00;95231.06;4957044;29;20526;-89
2020/12/18 03:51:58;;;;;;;27.63;24.77;;;;;;;5.72;100.00;95180.25;4956607;29;20423;-89
2020/12/18 03:54:24;;;;;;;26.50;24.20;;;;;;;5.97;100.00;95241.38;4958579;28;20532;-89
2020/12/18 03:56:51;;;;;;;25.77;23.43;;;;;;;6.00;100.00;95264.16;4975318;28;20472;-90
2020/12/18 03:59:17;;;;;;;25.77;23.20;;;;;;;6.18;100.00;95249.06;4975411;28;20418;-89
2020/12/18 04:01:43;;;;;;;27.10;24.70;;;;;;;6.15;100.00;95240.84;4975578;28;20500;-89
2020/12/18 04:04:10;;;;;;;25.97;23.60;;;;;;;6.03;100.00;95229.81;4976737;28;21015;-89
2020/12/18 04:06:36;;;;;;;29.07;26.10;;;;;;;6.05;100.00;95249.22;4980492;28;20429;-91
2020/12/18 04:09:04;;;;;;;26.23;23.77;;;;;;;5.96;100.00;95255.06;4983109;28;20414;-90
2020/12/18 04:11:30;;;;;;;26.27;23.57;;;;;;;5.86;100.00;95231.19;4962022;28;20454;-91
2020/12/18 04:13:56;;;;;;;25.33;22.97;;;;;;;5.61;100.00;95205.84;4956313;29;20418;-89
2020/12/18 04:16:23;;;;;;;26.23;24.20;;;;;;;5.80;100.00;95237.63;4955722;29;21013;-89
2020/12/18 04:18:49;;;;;;;26.50;23.90;;;;;;;6.17;100.00;95259.44;4957304;28;20438;-89
2020/12/18 04:21:17;;;;;;;26.17;24.13;;;;;;;5.93;100.00;95232.31;4959005;29;20535;-89
2020/12/18 04:23:43;;;;;;;27.13;24.60;;;;;;;5.48;100.00;95217.03;4956084;29;20441;-89
2020/12/18 04:26:11;;;;;;;26.77;24.47;;;;;;;5.94;100.00;95283.34;4956007;29;20425;-90
2020/12/18 04:28:37;;;;;;;27.53;25.00;;;;;;;5.72;100.00;95251.81;4957414;29;20489;-88
2020/12/18 04:31:04;;;;;;;25.83;23.53;;;;;;;6.00;100.00;95282.06;4956271;29;20877;-89
2020/12/18 04:33:30;;;;;;;31.73;28.33;;;;;;;5.80;100.00;95275.97;4955668;29;20577;-89
2020/12/18 04:35:56;;;;;;;25.00;22.80;;;;;;;6.01;100.00;95288.78;4955458;29;20568;-89
2020/12/18 04:38:23;;;;;;;23.97;22.07;;;;;;;5.62;100.00;95225.34;4955822;29;20448;-89
2020/12/18 04:40:50;;;;;;;26.37;23.73;;;;;;;6.19;100.00;95295.94;4965193;28;20497;-88
2020/12/18 04:43:18;;;;;;;25.60;23.50;;;;;;;6.14;100.00;95303.16;4974839;28;20469;-89
2020/12/18 04:45:56;;;;;;;24.93;22.93;;;;;;;6.21;100.00;95318.81;4968722;28;20961;-90
2020/12/18 04:48:26;;;;;;;27.27;24.50;;;;;;;6.23;100.00;95299.88;4955702;29;20453;-89
2020/12/18 04:50:55;;;;;;;26.50;24.10;;;;;;;6.00;100.00;95266.72;4955202;29;20529;-89
2020/12/18 04:53:26;;;;;;;26.87;24.33;;;;;;;6.25;100.00;95310.78;4956107;29;20769;-89
2020/12/18 04:55:54;;;;;;;25.63;23.43;;;;;;;5.98;100.00;95286.44;4955280;29;20476;-89
2020/12/18 04:58:22;;;;;;;34.23;25.90;;;;;;;5.77;100.00;95251.44;4956526;29;20437;-91
2020/12/18 05:00:54;;;;;;;29.37;26.50;;;;;;;6.21;100.00;95314.53;4957694;29;20454;-90
2020/12/18 05:03:21;;;;;;;27.07;24.77;;;;;;;6.24;100.00;95332.19;4966888;28;20583;-89
2020/12/18 05:05:48;;;;;;;28.07;25.50;;;;;;;5.82;100.00;95274.09;4982184;28;20438;-89
2020/12/18 05:08:14;;;;;;;30.20;25.73;;;;;;;6.26;100.00;95322.66;4981861;28;20440;-88
2020/12/18 05:10:41;;;;;;;27.13;24.40;;;;;;;6.22;100.00;95336.63;4974185;28;20460;-89
2020/12/18 05:13:07;;;;;;;26.53;24.23;;;;;;;6.27;100.00;95333.72;4974503;28;20487;-89
2020/12/18 05:15:35;;;;;;;26.27;23.87;;;;;;;6.04;100.00;95328.63;4975652;28;20545;-89
2020/12/18 05:18:01;;;;;;;25.67;23.07;;;;;;;5.89;100.00;95316.09;4980598;28;20528;-88
2020/12/18 05:20:28;;;;;;;28.00;25.27;;;;;;;5.65;100.00;95288.16;4979480;28;20442;-89
2020/12/18 05:22:55;;;;;;;26.60;24.37;;;;;;;6.13;100.00;95330.50;4980174;28;20484;-89
2020/12/18 05:25:22;;;;;;;26.73;24.33;;;;;;;5.59;100.00;95269.84;4975998;28;20554;-90
2020/12/18 05:27:50;;;;;;;26.77;24.37;;;;;;;5.65;100.00;95303.50;4974699;28;20437;-89
2020/12/18 05:30:21;;;;;;;26.10;23.80;;;;;;;6.01;100.00;95377.44;4975370;28;20528;-89
2020/12/18 05:32:52;;;;;;;26.47;24.27;;;;;;;5.72;100.00;95354.03;4982039;28;20460;-70
2020/12/18 05:35:18;;;;;;;110.50;59.17;;;;;;;5.76;100.00;95349.50;4967380;28;20462;-79
2020/12/18 05:37:46;;;;;;;34.20;30.63;;;;;;;5.74;100.00;95315.56;4944667;29;20518;-85
2020/12/18 05:40:12;;;;;;;28.80;25.63;;;;;;;5.96;100.00;95342.00;4957979;29;20427;-86
2020/12/18 05:42:43;;;;;;;28.10;25.50;;;;;;;5.92;100.00;95338.06;4958309;29;20876;-87
2020/12/18 05:45:15;;;;;;;210.27;105.33;;;;;;;5.91;100.00;95347.50;4957313;29;20437;-78
2020/12/18 05:47:58;;;;;;;52.70;39.43;;;;;;;6.02;100.00;95345.84;4958627;29;20430;-85
2020/12/18 05:50:28;;;;;;;27.30;24.70;;;;;;;5.93;100.00;95358.44;4955386;29;20450;-85
2020/12/18 05:52:57;;;;;;;26.93;24.23;;;;;;;6.00;100.00;95353.66;4957470;29;20596;-87
2020/12/18 05:55:31;;;;;;;29.57;24.50;;;;;;;5.92;100.00;95372.13;4957418;29;20505;-85
2020/12/18 05:57:58;;;;;;;26.20;23.77;;;;;;;6.00;100.00;95353.66;4957227;29;20442;-77
2020/12/18 06:00:24;;;;;;;28.30;25.70;;;;;;;5.96;100.00;95370.13;4957045;29;20445;-79
2020/12/18 06:03:00;;;;;;;37.53;25.30;;;;;;;5.83;100.00;95337.03;4958040;28;21099;-82
2020/12/18 06:05:27;;;;;;;26.13;23.93;;;;;;;5.90;100.00;95365.50;4957958;29;20838;-81
2020/12/18 06:07:55;;;;;;;70.30;42.90;;;;;;;5.79;100.00;95372.28;4959979;28;20524;-74
2020/12/18 06:10:23;;;;;;;34.83;26.30;;;;;;;5.81;100.00;95372.16;4973912;28;20998;-83
2020/12/18 06:12:50;;;;;;;27.67;25.17;;;;;;;5.78;100.00;95354.50;4976229;28;20949;-80
2020/12/18 06:15:18;;;;;;;27.40;24.90;;;;;;;5.79;100.00;95369.72;4975219;28;20469;-79
2020/12/18 06:17:46;;;;;;;150.03;72.93;;;;;;;5.81;100.00;95355.06;4976108;28;20928;-77
2020/12/18 06:20:15;;;;;;;33.30;28.67;;;;;;;5.80;100.00;95373.09;4976155;28;20566;-77
2020/12/18 06:22:59;;;;;;;28.77;25.87;;;;;;;5.79;100.00;95368.91;4976052;28;20868;-78
2020/12/18 06:25:25;;;;;;;29.60;26.30;;;;;;;5.65;100.00;95358.00;4976086;28;20437;-76
2020/12/18 06:28:00;;;;;;;28.60;25.87;;;;;;;5.78;100.00;95362.19;4976188;28;20533;-75
2020/12/18 06:30:26;;;;;;;27.60;25.00;;;;;;;5.83;100.00;95358.31;4976006;28;20445;-81
2020/12/18 06:32:53;;;;;;;29.33;26.40;;;;;;;5.89;100.00;95362.13;4976554;28;20497;-78
2020/12/18 06:35:29;;;;;;;27.77;24.90;;;;;;;5.83;100.00;95360.88;4964818;28;20560;-78
2020/12/18 06:37:56;;;;;;;29.63;26.43;;;;;;;5.63;100.00;95336.84;4954161;29;20854;-78
2020/12/18 06:40:31;;;;;;;26.63;24.03;;;;;;;5.88;100.00;95362.25;4955823;29;20434;-76
2020/12/18 06:42:58;;;;;;;27.80;25.10;;;;;;;5.88;100.00;95367.38;4955565;29;20467;-77
2020/12/18 06:45:25;;;;;;;25.73;23.40;;;;;;;5.92;100.00;95363.63;4956304;29;20973;-80
2020/12/18 06:47:52;;;;;;;27.80;25.10;;;;;;;5.90;100.00;95360.38;4955849;29;20454;-77
2020/12/18 06:50:19;;;;;;;28.90;25.90;;;;;;;5.84;100.00;95357.41;4955616;29;20522;-77
2020/12/18 06:52:55;;;;;;;31.90;28.47;;;;;;;5.98;100.00;95370.81;4956851;29;20442;-77
2020/12/18 06:55:42;;;;;;;33.70;27.90;;;;;;;5.92;100.00;95361.91;4956022;29;20544;-78
2020/12/18 06:58:14;;;;;;;27.00;24.73;;;;;;;5.65;100.00;95368.22;4951491;29;20532;-78
2020/12/18 07:00:46;;;;;;;27.73;24.93;;;;;;;5.65;100.00;95355.44;4956517;29;20529;-77
2020/12/18 07:03:36;;;;;;;27.53;25.00;;;;;;;5.55;100.00;95370.69;4956658;28;21024;-78
2020/12/18 07:06:05;;;;;;;26.60;24.40;;;;;;;5.66;100.00;95353.69;4955767;29;20435;-77
2020/12/18 07:08:34;;;;;;;27.50;24.90;;;;;;;5.78;100.00;95357.84;4955571;29;20456;-78
2020/12/18 07:11:03;;;;;;;28.43;25.83;;;;;;;5.86;100.00;95359.84;4955553;29;20812;-77
2020/12/18 07:13:31;;;;;;;30.73;26.77;;;;;;;5.74;100.00;95338.56;4955524;29;20457;-77
2020/12/18 07:15:59;;;;;;;28.03;25.40;;;;;;;5.83;100.00;95357.50;4955078;29;20474;-77
2020/12/18 07:18:27;;;;;;;28.33;25.90;;;;;;;5.88;100.00;95360.53;4955542;29;20476;-77
2020/12/18 07:20:55;;;;;;;28.20;25.70;;;;;;;5.99;100.00;95359.69;4955411;29;20430;-77
2020/12/18 07:23:22;;;;;;;27.40;25.00;;;;;;;5.80;100.00;95338.09;4961117;28;20430;-77
2020/12/18 07:25:51;;;;;;;28.73;25.37;;;;;;;5.86;100.00;95364.94;4969236;28;20446;-76
2020/12/18 07:28:18;;;;;;;28.67;25.77;;;;;;;5.95;100.00;95371.91;4955260;29;20434;-77
2020/12/18 07:30:46;;;;;;;30.10;26.87;;;;;;;6.02;100.00;95367.13;4955756;29;20930;-76
2020/12/18 07:33:15;;;;;;;29.80;26.83;;;;;;;6.09;100.00;95372.59;4955304;29;20419;-77
2020/12/18 07:35:42;;;;;;;29.33;26.70;;;;;;;6.11;100.00;95369.91;4955530;29;20518;-77
2020/12/18 07:38:17;;;;;;;29.80;26.30;;;;;;;6.04;100.00;95375.47;4955153;29;20427;-78
2020/12/18 07:40:45;;;;;;;28.30;25.13;;;;;;;5.97;100.00;95382.00;4953585;29;20434;-76
2020/12/18 07:43:14;;;;;;;28.67;25.97;;;;;;;6.02;100.00;95379.91;4954880;29;20485;-76
2020/12/18 07:45:42;;;;;;;28.83;26.03;;;;;;;5.95;100.00;95371.09;4972340;28;20453;-77
2020/12/18 07:48:17;;;;;;;27.63;24.97;;;;;;;6.06;100.00;95372.78;4974998;28;20443;-77
2020/12/18 07:51:05;;;;;;;33.60;25.20;;;;;;;5.83;100.00;95380.50;4974886;28;20433;-76
2020/12/18 07:53:33;;;;;;;32.20;24.97;;;;;;;5.78;100.00;95370.63;4974730;28;20950;-75
2020/12/18 07:56:08;;;;;;;25.40;23.17;;;;;;;5.77;100.00;95370.75;4974581;28;20508;-76
2020/12/18 07:58:45;;;;;;;25.37;22.80;;;;;;;5.89;100.00;95362.13;4973406;28;20528;-76
2020/12/18 08:01:14;;;;;;;24.40;22.30;;;;;;;6.04;100.00;95359.31;4974480;28;20852;-78
2020/12/18 08:03:46;;;;;;;29.97;26.73;;;;;;;5.99;100.00;95362.25;4996327;28;20565;-76
2020/12/18 08:06:16;;;;;;;27.23;24.63;;;;;;;5.94;100.00;95359.22;5013266;28;20427;-76
2020/12/18 08:08:47;;;;;;;29.40;26.20;;;;;;;5.76;100.00;95364.81;5013015;28;20485;-76
2020/12/18 08:11:15;;;;;;;27.00;24.20;;;;;;;5.68;100.00;95356.94;5012967;28;20966;-76
2020/12/18 08:13:42;;;;;;;27.40;24.60;;;;;;;5.45;100.00;95350.13;5013146;28;20439;-76
2020/12/18 08:16:11;;;;;;;26.90;24.30;;;;;;;5.58;100.00;95347.44;5012795;28;20472;-77
2020/12/18 08:18:39;;;;;;;27.43;24.73;;;;;;;5.47;100.00;95332.94;5013011;28;20455;-76
2020/12/18 08:21:06;;;;;;;28.73;24.73;;;;;;;5.33;100.00;95333.97;5012635;28;20477;-76
2020/12/18 08:23:37;;;;;;;26.73;24.10;;;;;;;5.17;100.00;95336.06;5013003;28;20447;-78
2020/12/18 08:26:05;;;;;;;31.83;25.93;;;;;;;5.10;100.00;95320.41;5012938;28;20480;-77
2020/12/18 08:28:34;;;;;;;28.50;25.70;;;;;;;5.29;100.00;95313.91;5012615;28;20435;-76
2020/12/18 08:31:06;;;;;;;30.43;25.37;;;;;;;5.24;100.00;95302.28;5012905;28;20451;-76
2020/12/18 08:33:37;;;;;;;33.63;25.47;;;;;;;5.43;100.00;95295.78;5013124;28;20926;-75
2020/12/18 08:36:04;;;;;;;32.20;26.50;;;;;;;5.64;100.00;95289.13;5012613;28;20473;-76
2020/12/18 08:38:31;;;;;;;28.73;25.73;;;;;;;5.87;100.00;95294.97;5012686;28;20465;-76
2020/12/18 08:40:58;;;;;;;29.20;25.93;;;;;;;5.81;100.00;95303.94;5011870;28;20811;-76
2020/12/18 08:43:24;;;;;;;32.37;28.20;;;;;;;5.96;100.00;95301.91;5012194;28;20459;-76
2020/12/18 08:45:51;;;;;;;38.40;28.30;;;;;;;5.90;100.00;95306.69;5012094;28;20482;-76
2020/12/18 08:48:26;;;;;;;29.90;26.80;;;;;;;6.02;100.00;95300.63;5012727;28;20898;-76
2020/12/18 08:51:00;;;;;;;29.53;25.87;;;;;;;5.79;100.00;95313.47;5012449;28;20439;-76
2020/12/18 08:53:33;;;;;;;28.67;25.97;;;;;;;5.66;100.00;95308.53;5012614;28;20420;-76
2020/12/18 08:56:02;;;;;;;30.50;25.90;;;;;;;5.81;100.00;95293.72;5012390;28;21003;-76
2020/12/18 08:58:33;;;;;;;33.80;27.23;;;;;;;5.92;100.00;95305.66;5011652;28;20438;-75
2020/12/18 09:01:00;;;;;;;32.70;29.50;;;;;;;6.13;100.00;95306.66;5012628;28;20483;-75
2020/12/18 09:03:37;;;;;;;32.43;27.70;;;;;;;5.95;100.00;95302.03;5010616;28;20471;-77
2020/12/18 09:06:10;;;;;;;29.77;26.90;;;;;;;5.46;100.00;95310.88;5011672;28;20441;-76
2020/12/18 09:08:36;;;;;;;33.80;27.90;;;;;;;5.57;100.00;95288.78;5012191;28;20459;-76
2020/12/18 09:11:03;;;;;;;29.00;25.97;;;;;;;5.82;100.00;95284.31;5012410;28;20457;-75
2020/12/18 09:13:31;;;;;;;30.60;27.37;;;;;;;6.23;100.00;95286.28;5011971;28;20420;-75
2020/12/18 09:16:05;;;;;;;30.37;27.27;;;;;;;6.09;100.00;95282.28;5012065;28;20540;-75
2020/12/18 09:18:34;;;;;;;39.97;27.70;;;;;;;5.90;100.00;95287.06;5012015;28;20861;-76
2020/12/18 09:21:12;;;;;;;35.20;29.20;;;;;;;6.26;100.00;95276.63;5012061;28;20435;-75
2020/12/18 09:23:39;;;;;;;31.73;27.60;;;;;;;6.54;100.00;95265.88;5011400;28;20456;-75
2020/12/18 09:26:05;;;;;;;30.97;27.70;;;;;;;6.50;100.00;95283.22;5011651;28;20438;-75
2020/12/18 09:28:37;;;;;;;32.67;29.00;;;;;;;6.26;100.00;95289.41;5012343;28;20917;-76
2020/12/18 09:31:06;;;;;;;35.50;29.80;;;;;;;5.77;100.00;95278.75;5012433;28;20517;-73
2020/12/18 09:33:37;;;;;;;37.53;30.07;;;;;;;6.03;100.00;95289.47;5011440;28;20876;-76
2020/12/18 09:36:09;;;;;;;32.33;28.90;;;;;;;5.95;100.00;95284.16;5011359;28;20470;-75
2020/12/18 09:38:37;;;;;;;32.67;28.90;;;;;;;5.98;100.00;95278.78;5011073;28;20470;-77
2020/12/18 09:41:05;;;;;;;31.30;28.13;;;;;;;5.87;100.00;95271.16;5011142;28;20911;-76
2020/12/18 09:43:32;;;;;;;41.53;28.43;;;;;;;5.82;100.00;95281.75;5011208;28;20944;-76
2020/12/18 09:46:00;;;;;;;37.00;29.43;;;;;;;5.97;100.00;95277.16;5011654;28;20862;-76
2020/12/18 09:48:30;;;;;;;38.20;26.77;;;;;;;6.04;100.00;95265.53;5011376;28;20931;-76
2020/12/18 09:50:58;;;;;;;36.20;27.63;;;;;;;6.03;100.00;95270.75;5011723;28;20501;-76
2020/12/18 09:53:25;;;;;;;31.07;27.80;;;;;;;6.16;100.00;95252.72;5011336;28;20438;-76
2020/12/18 09:55:53;;;;;;;31.27;27.87;;;;;;;6.38;100.00;95258.66;5011223;28;20467;-77
2020/12/18 09:58:19;;;;;;;35.90;29.70;;;;;;;6.63;100.00;95247.19;5011730;28;20451;-76
2020/12/18 10:00:45;;;;;;;32.30;28.90;;;;;;;6.70;100.00;95244.94;5011426;28;20424;-76
2020/12/18 10:03:12;;;;;;;35.30;29.43;;;;;;;6.84;100.00;95246.34;5009773;28;20997;-76
2020/12/18 10:05:38;;;;;;;34.63;28.90;;;;;;;6.38;100.00;95263.75;5011571;28;20428;-76
2020/12/18 10:08:06;;;;;;;42.47;31.10;;;;;;;6.18;100.00;95264.44;5011250;28;20432;-76
2020/12/18 10:10:32;;;;;;;39.27;29.40;;;;;;;6.34;100.00;95252.94;5010897;28;20493;-76
2020/12/18 10:12:59;;;;;;;41.67;31.70;;;;;;;6.28;100.00;95256.84;5010838;28;20439;-76
2020/12/18 10:15:26;;;;;;;36.73;29.67;;;;;;;6.38;100.00;95223.66;5009961;28;20455;-76
2020/12/18 10:17:53;;;;;;;33.27;29.37;;;;;;;6.41;100.00;95230.22;5014420;28;20435;-76
2020/12/18 10:20:20;;;;;;;35.43;29.00;;;;;;;6.50;100.00;95226.09;5014474;28;20850;-75
2020/12/18 10:22:46;;;;;;;41.17;30.07;;;;;;;6.29;100.00;95224.41;5014647;28;20435;-75
2020/12/18 10:25:14;;;;;;;43.30;31.17;;;;;;;6.18;100.00;95232.94;5014515;28;20953;-76
2020/12/18 10:27:40;;;;;;;44.73;30.93;;;;;;;6.46;100.00;95219.63;5014309;28;20936;-75
2020/12/18 10:30:08;;;;;;;49.47;31.73;;;;;;;6.26;100.00;95217.78;5015008;28;20497;-77
2020/12/18 10:32:34;;;;;;;45.63;30.37;;;;;;;6.22;100.00;95218.97;5014679;28;20546;-75
2020/12/18 10:35:01;;;;;;;43.63;30.17;;;;;;;6.24;100.00;95219.66;5014796;28;20443;-76
2020/12/18 10:37:28;;;;;;;33.97;28.17;;;;;;;6.16;100.00;95214.34;5013958;28;20475;-75
2020/12/18 10:39:54;;;;;;;35.57;27.27;;;;;;;6.16;100.00;95209.25;5014221;28;20448;-75
2020/12/18 10:42:21;;;;;;;44.03;30.23;;;;;;;6.32;100.00;95200.31;5014113;28;20546;-75
2020/12/18 10:44:48;;;;;;;44.77;30.50;;;;;;;6.33;100.00;95201.91;5013916;28;20440;-76
2020/12/18 10:47:21;;;;;;;35.73;30.70;;;;;;;6.28;100.00;95199.72;5014307;28;20439;-75
2020/12/18 10:49:47;;;;;;;34.50;27.83;;;;;;;6.08;100.00;95207.28;5013962;28;20864;-75
2020/12/18 10:52:14;;;;;;;41.57;30.10;;;;;;;6.05;100.00;95194.72;5013850;28;20500;-74
2020/12/18 10:54:40;;;;;;;38.93;29.20;;;;;;;5.73;100.00;95202.28;5014054;28;20443;-74
2020/12/18 10:57:06;;;;;;;30.57;27.30;;;;;;;5.89;100.00;95187.50;5013643;28;21127;-74
2020/12/18 10:59:34;;;;;;;32.43;27.13;;;;;;;5.72;100.00;95187.91;5013883;28;20494;-75
2020/12/18 11:02:02;;;;;;;35.30;27.27;;;;;;;6.18;100.00;95172.34;5013631;28;20454;-75
2020/12/18 11:04:29;;;;;;;35.43;29.60;;;;;;;6.32;100.00;95178.06;5012552;28;20513;-76
2020/12/18 11:06:55;;;;;;;40.43;29.03;;;;;;;6.44;100.00;95172.88;5013505;28;20448;-75
2020/12/18 11:09:21;;;;;;;32.20;27.63;;;;;;;6.65;100.00;95167.75;5013321;28;20440;-77
2020/12/18 11:11:51;;;;;;;30.87;27.30;;;;;;;6.44;100.00;95172.88;5013234;28;20473;-77
2020/12/18 11:14:18;;;;;;;40.57;29.30;;;;;;;6.16;100.00;95181.09;5013364;28;20447;-79
2020/12/18 11:16:46;;;;;;;38.77;29.57;;;;;;;6.31;100.00;95176.47;5013398;28;20475;-75
2020/12/18 11:19:12;;;;;;;36.83;29.60;;;;;;;6.10;100.00;95179.84;5013987;28;20451;-75
2020/12/18 11:21:43;;;;;;;33.00;29.43;;;;;;;6.22;100.00;95169.56;5013384;28;20807;-78